Aviation Digital Data Service (ADDS)

Output produced by METARs form (1546 UTC 15 December 2017)
found at http://aviationweather.gov/adds/metars/
 
KCLT 151350Z 1514/1618 01006KT P6SM SCT150 BKN200 
     FM151900 34006G18KT P6SM SCT250 
     FM160000 30004KT P6SM SKC 
     FM160700 VRB03KT P6SM SKC